• Join FlightAware (Why Join?)
  • Login
  • US Flag 
12:44PM EDT


 

Airport Tracker/Info


-or-


 

Live Flight TrackerFlight Track Log ✈ EJM826 ✈ 23-Dec-2013 ✈ KIAH - KHOU

Flight Track Log - Related Links

Times and Time Zones

All times are in EST time to prevent confusion due to time zone crossing. See the EJM826 flight status page for this flight to view local times or setup timezone preferences in your user account.

Time Position Orientation Groundspeed Altitude Reporting Facility
EST Latitude Longitude Course Direction KTS MPH feet Rate Location/Type
06:27PM 29.9650 -95.3575 234° Southwest 167 192 1,200  Level Houston Center
06:28PM 29.9247 -95.4203 233° Southwest 269 310 3,000 840 Climbing Houston Center
06:29PM 29.8856 -95.4611 222° Southwest 276 318 3,000  Level Houston Center
06:29PM 29.8647 -95.4781 215° Southwest 281 323 3,000  Level Houston Center
06:30PM 29.8067 -95.5111 206° Southwest 274 315 3,000  Level Houston Center
06:30PM 29.7967 -95.5128 188° South 254 292 3,000  Level Houston Center
06:31PM 29.7447 -95.5244 191° South 244 281 3,000  Level Houston Center
06:31PM 29.7369 -95.5269 196° South 218 251 3,000  Level Houston Center
06:32PM 29.6681 -95.5306 183° South 230 265 3,000  Level Houston Center
06:33PM 29.6250 -95.5136 161° South 227 261 3,000  Level Houston Center
06:33PM 29.6111 -95.5058 154° Southeast 237 273 3,000  Level Houston Center
06:34PM 29.5722 -95.4744 145° Southeast 230 265 3,000 -120 Level Houston Center
06:34PM 29.5564 -95.4572 137° Southeast 217 250 2,900 -780 Descending Houston Center
06:35PM 29.5506 -95.4019 97° East 215 247 2,200 -720 Descending Houston Center
06:35PM 29.5542 -95.3878 74° East 205 236 2,100 -540 Descending Houston Center
06:36PM 29.5764 -95.3528 54° Northeast 193 222 1,700 -540 Descending Houston Center
06:36PM 29.5800 -95.3486 45° Northeast 159 183 1,600 -720 Descending Houston Center
06:37PM 29.5983 -95.2983 67° East 149 171 900 -660 Descending Houston Center
06:38PM 29.6211 -95.2842 28° Northeast 146 168 400 -720 Descending Houston Center
06:38PM 29.6286 -95.2850 354° North 110 127 200 2,460 Descending Houston Center
06:39PM 29.6558 -95.2842 North 129 148 3,000 3,000 Climbing Houston Center